createdAt,value
2019-05-20T00:00:01.768Z,18.2
2019-05-20T00:05:02.919Z,18.1
2019-05-20T00:10:01.959Z,18.1
2019-05-20T00:15:03.318Z,18
2019-05-20T00:20:04.672Z,17.9
2019-05-20T00:25:01.479Z,17.9
2019-05-20T00:30:02.659Z,17.8
2019-05-20T00:35:02.079Z,17.8
2019-05-20T00:40:02.475Z,17.7
2019-05-20T00:45:01.629Z,17.6
2019-05-20T00:50:05.507Z,17.5
2019-05-20T00:55:02.050Z,17.5
2019-05-20T01:00:01.532Z,17.4
2019-05-20T01:05:02.473Z,17.3
2019-05-20T01:10:01.640Z,17.2
2019-05-20T01:15:03.076Z,17.1
2019-05-20T01:20:01.830Z,17
2019-05-20T01:25:03.176Z,17
2019-05-20T01:30:01.959Z,16.9
2019-05-20T01:35:03.319Z,16.8
2019-05-20T01:40:01.698Z,16.8
2019-05-20T01:45:02.893Z,16.7
2019-05-20T01:50:01.634Z,16.7
2019-05-20T01:55:02.772Z,16.6
2019-05-20T02:00:01.860Z,16.6
2019-05-20T02:05:02.947Z,16.5
2019-05-20T02:10:01.984Z,16.5
2019-05-20T02:15:03.328Z,16.5
2019-05-20T02:20:02.293Z,16.4
2019-05-20T02:25:01.530Z,16.3
2019-05-20T02:30:02.633Z,16.2
2019-05-20T02:35:01.564Z,16.2
2019-05-20T02:40:05.195Z,16
2019-05-20T02:45:04.169Z,16
2019-05-20T02:50:02.990Z,16
2019-05-20T02:55:04.577Z,15.9
2019-05-20T03:00:16.637Z,15.9
2019-05-20T03:05:02.347Z,15.9
2019-05-20T03:10:01.603Z,15.9
2019-05-20T03:15:02.728Z,15.9
2019-05-20T03:20:01.748Z,15.9
2019-05-20T03:25:02.666Z,15.9
2019-05-20T03:30:01.929Z,15.9
2019-05-20T03:35:03.321Z,15.9
2019-05-20T03:40:02.283Z,15.9
2019-05-20T03:45:01.603Z,15.9
2019-05-20T03:50:02.672Z,15.9
2019-05-20T03:55:04.042Z,16
2019-05-20T04:00:02.756Z,15.9
2019-05-20T04:05:03.153Z,16
2019-05-20T04:10:02.646Z,16
2019-05-20T04:15:11.801Z,16
2019-05-20T04:20:02.909Z,16
2019-05-20T04:25:01.696Z,16.1
2019-05-20T04:30:02.687Z,16.2
2019-05-20T04:35:18.630Z,16.3
2019-05-20T04:40:15.943Z,16.5
2019-05-20T04:45:02.119Z,16.5
2019-05-20T04:50:01.547Z,16.6
2019-05-20T04:55:02.537Z,16.6
2019-05-20T05:00:01.705Z,16.6
2019-05-20T05:05:05.230Z,16.6
2019-05-20T05:10:01.969Z,16.6
2019-05-20T05:15:07.252Z,16.7
2019-05-20T05:20:02.106Z,16.7
2019-05-20T05:25:03.260Z,16.7
2019-05-20T05:30:02.062Z,16.7
2019-05-20T05:35:13.483Z,16.8
2019-05-20T05:40:02.207Z,16.8
2019-05-20T05:45:01.339Z,16.8
2019-05-20T05:50:02.244Z,16.9
2019-05-20T05:55:01.310Z,17
2019-05-20T06:00:02.296Z,17.1
2019-05-20T06:05:01.510Z,17.1
2019-05-20T06:10:02.214Z,17.1
2019-05-20T06:15:01.600Z,17.2
2019-05-20T06:20:02.070Z,17.3
2019-05-20T06:25:03.967Z,17.5
2019-05-20T06:30:02.183Z,17.5
2019-05-20T06:35:01.718Z,17.6
2019-05-20T06:40:02.738Z,17.7
2019-05-20T06:45:01.679Z,17.8
2019-05-20T06:50:02.642Z,17.9
2019-05-20T06:55:01.614Z,18
2019-05-20T07:00:02.681Z,18.1
2019-05-20T07:05:01.724Z,18.2
2019-05-20T07:10:02.949Z,18.3
2019-05-20T07:15:02.264Z,18.4
2019-05-20T07:20:03.315Z,18.6
2019-05-20T07:25:02.449Z,18.6
2019-05-20T07:30:01.531Z,18.7
2019-05-20T07:35:02.577Z,18.8
2019-05-20T07:40:02.147Z,18.9
2019-05-20T07:45:01.477Z,19
2019-05-20T07:50:02.652Z,19
2019-05-20T07:55:01.507Z,19
2019-05-20T08:00:02.687Z,19.1
2019-05-20T08:05:01.681Z,19.1
2019-05-20T08:10:02.480Z,19.2
2019-05-20T08:15:01.797Z,19.2
2019-05-20T08:20:03.111Z,19.4
2019-05-20T08:25:02.095Z,19.5
2019-05-20T08:30:01.400Z,19.6
2019-05-20T08:35:02.332Z,19.8
2019-05-20T08:40:01.604Z,19.9
2019-05-20T08:45:03.378Z,20.1
2019-05-20T08:50:06.180Z,20.4
2019-05-20T08:55:08.303Z,20.6
2019-05-20T09:00:02.777Z,20.6
2019-05-20T09:05:03.312Z,20.8
2019-05-20T09:10:02.376Z,20.9
2019-05-20T09:15:01.627Z,21
2019-05-20T09:20:02.946Z,21.1
2019-05-20T09:25:02.218Z,21.3
2019-05-20T09:30:03.320Z,21.4
2019-05-20T09:35:02.123Z,21.6
2019-05-20T09:40:01.617Z,21.8
2019-05-20T09:45:03.283Z,22
2019-05-20T09:50:01.727Z,22.1
2019-05-20T09:55:02.681Z,22.3
2019-05-20T10:00:01.731Z,22.4
2019-05-20T10:05:02.948Z,22.5
2019-05-20T10:10:01.781Z,22.7
2019-05-20T10:15:02.976Z,22.8
2019-05-20T10:20:01.794Z,22.9
2019-05-20T10:25:03.228Z,22.9
2019-05-20T10:30:02.083Z,22.9
2019-05-20T10:35:03.346Z,22.9
2019-05-20T10:40:02.104Z,23.1
2019-05-20T10:45:01.365Z,23.3
2019-05-20T10:50:02.203Z,23.5
2019-05-20T10:55:01.406Z,23.6
2019-05-20T11:00:02.701Z,23.6
2019-05-20T11:05:11.943Z,23.6
2019-05-20T11:10:02.969Z,23.6
2019-05-20T11:15:01.710Z,23.7
2019-05-20T11:20:03.090Z,23.7
2019-05-20T11:25:04.609Z,23.8
2019-05-20T11:30:14.123Z,23.7
2019-05-20T11:35:02.642Z,23.7
2019-05-20T11:40:01.720Z,23.7
2019-05-20T11:45:03.022Z,23.6
2019-05-20T11:50:01.985Z,23.5
2019-05-20T11:55:02.844Z,23.4
2019-05-20T12:00:01.703Z,23.4
2019-05-20T12:05:05.465Z,23.6
2019-05-20T12:10:01.978Z,23.6
2019-05-20T12:15:04.133Z,23.7
2019-05-20T12:20:03.558Z,23.7
2019-05-20T12:25:03.832Z,23.7
2019-05-20T12:30:02.273Z,23.7
2019-05-20T12:35:01.621Z,23.7
2019-05-20T12:40:07.372Z,23.6
2019-05-20T12:45:01.762Z,23.7
2019-05-20T12:50:03.061Z,23.7
2019-05-20T12:55:08.336Z,24
2019-05-20T13:00:03.354Z,24
2019-05-20T13:05:02.295Z,24
2019-05-20T13:10:02.932Z,24.1
2019-05-20T13:15:02.408Z,24.2
2019-05-20T13:20:01.696Z,24.2
2019-05-20T13:25:03.014Z,24.4
2019-05-20T13:30:02.035Z,24.4
2019-05-20T13:35:01.317Z,24.3
2019-05-20T13:40:03.318Z,24.3
2019-05-20T13:45:01.653Z,24.2
2019-05-20T13:50:05.601Z,24.1
2019-05-20T13:55:02.387Z,24.1
2019-05-20T14:00:01.354Z,24
2019-05-20T14:05:02.315Z,23.8
2019-05-20T14:10:04.037Z,23.6
2019-05-20T14:15:02.507Z,23.6
2019-05-20T14:20:01.935Z,23.5
2019-05-20T14:25:02.985Z,23.4
2019-05-20T14:30:04.532Z,23.1
2019-05-20T14:35:02.942Z,23.1
2019-05-20T14:40:01.452Z,23
2019-05-20T14:45:02.516Z,22.7
2019-05-20T14:50:01.804Z,22.6
2019-05-20T14:55:02.847Z,22.4
2019-05-20T15:00:01.741Z,22.3
2019-05-20T15:05:02.843Z,22.2
2019-05-20T15:10:02.134Z,22
2019-05-20T15:15:02.985Z,21.8
2019-05-20T15:20:03.326Z,21.7
2019-05-20T15:25:02.165Z,21.5
2019-05-20T15:30:01.639Z,21.4
2019-05-20T15:35:02.858Z,21.2
2019-05-20T15:40:01.974Z,21.1
2019-05-20T15:45:03.338Z,21.1
2019-05-20T15:50:05.686Z,21.1
2019-05-20T15:55:04.083Z,20.3
2019-05-20T16:00:03.378Z,20.2
2019-05-20T16:05:02.063Z,19.6
2019-05-20T16:10:02.182Z,19
2019-05-20T16:15:01.338Z,18.8
2019-05-20T16:20:02.523Z,18.7
2019-05-20T16:25:01.520Z,18.6
2019-05-20T16:30:07.266Z,18.5
2019-05-20T16:35:02.682Z,18.4
2019-05-20T16:40:02.725Z,18.4
2019-05-20T16:45:02.038Z,18.3
2019-05-20T16:50:03.520Z,18.1
2019-05-20T16:55:02.155Z,18
2019-05-20T17:00:01.644Z,18
2019-05-20T17:05:15.520Z,18.1
2019-05-20T17:10:02.645Z,18.1
2019-05-20T17:15:03.329Z,18
2019-05-20T17:20:12.316Z,18.1
2019-05-20T17:25:01.287Z,18.1
2019-05-20T17:30:03.086Z,18.2
2019-05-20T17:35:01.451Z,18.3
2019-05-20T17:40:02.407Z,18.3
2019-05-20T17:45:01.927Z,18.4
2019-05-20T17:50:03.311Z,18.5
2019-05-20T17:55:02.008Z,18.5
2019-05-20T18:00:08.317Z,18.6
2019-05-20T18:05:02.089Z,18.6
2019-05-20T18:10:01.681Z,18.7
2019-05-20T18:15:02.438Z,18.7
2019-05-20T18:20:01.539Z,18.8
2019-05-20T18:25:02.163Z,18.8
2019-05-20T18:30:03.324Z,18.7
2019-05-20T18:35:02.146Z,18.7
2019-05-20T18:40:13.080Z,18.7
2019-05-20T18:45:02.499Z,18.7
2019-05-20T18:50:02.512Z,18.7
2019-05-20T18:55:05.360Z,18.6
2019-05-20T19:00:01.953Z,18.6
2019-05-20T19:05:03.238Z,18.5
2019-05-20T19:10:01.930Z,18.4
2019-05-20T19:15:01.313Z,18.4
2019-05-20T19:20:02.307Z,18.4
2019-05-20T19:25:03.116Z,18.4
2019-05-20T19:30:02.420Z,18.3
2019-05-20T19:35:01.537Z,18.3
2019-05-20T19:40:03.099Z,18.3
2019-05-20T19:45:01.866Z,18.3
2019-05-20T19:50:01.345Z,18.3
2019-05-20T19:55:02.326Z,18.3
2019-05-20T20:00:01.790Z,18.2
2019-05-20T20:05:07.934Z,18.1
2019-05-20T20:10:01.903Z,18.1
2019-05-20T20:15:02.894Z,18
2019-05-20T20:20:04.267Z,17.9
2019-05-20T20:25:02.886Z,17.9
2019-05-20T20:30:01.832Z,17.9
2019-05-20T20:35:03.036Z,17.8
2019-05-20T20:40:02.202Z,17.7
2019-05-20T20:45:01.337Z,17.7
2019-05-20T20:50:02.494Z,17.6
2019-05-20T20:55:01.512Z,17.5
2019-05-20T21:00:02.596Z,17.4
2019-05-20T21:05:01.561Z,17.4
2019-05-20T21:10:02.689Z,17.3
2019-05-20T21:15:01.776Z,17.3
2019-05-20T21:20:02.559Z,17.2
2019-05-20T21:25:01.934Z,17.2
2019-05-20T21:30:05.771Z,17.1
2019-05-20T21:35:02.133Z,17.1
2019-05-20T21:40:01.449Z,17.1
2019-05-20T21:45:02.380Z,17
2019-05-20T21:50:11.773Z,16.8
2019-05-20T21:55:02.649Z,16.8
2019-05-20T22:00:01.966Z,16.8
2019-05-20T22:05:06.370Z,16.6
2019-05-20T22:10:02.370Z,16.6
2019-05-20T22:15:01.625Z,16.5
2019-05-20T22:20:02.579Z,16.5
2019-05-20T22:25:01.894Z,16.4
2019-05-20T22:30:03.188Z,16.3
2019-05-20T22:35:01.987Z,16.2
2019-05-20T22:40:02.906Z,16.1
2019-05-20T22:45:01.869Z,16.1
2019-05-20T22:50:03.316Z,16
2019-05-20T22:55:02.073Z,16
2019-05-20T23:00:03.916Z,15.8
2019-05-20T23:05:02.349Z,15.8
2019-05-20T23:10:01.539Z,15.8
2019-05-20T23:15:02.590Z,15.7
2019-05-20T23:20:01.777Z,15.6
2019-05-20T23:25:03.010Z,15.5
2019-05-20T23:30:02.075Z,15.5
2019-05-20T23:35:01.514Z,15.4
2019-05-20T23:40:02.473Z,15.3
2019-05-20T23:45:01.826Z,15.2
2019-05-20T23:50:05.780Z,15.1
2019-05-20T23:55:02.009Z,15.1
